Terminal Aerodrome Forecast
Issued by NWS

Current Version | Previous Version | Graphics & Text | Print | Product List | Glossary On
Versions: 1 2 3 4 5 6 7 8 9 10 11 12 13 14 15 16 17 18 19 20 21 22 23
000
FTUS41 KPBZ 280500
TAFMGW
TAF
KMGW 280538Z 2806/2906 20005KT P6SM BKN025
      TEMPO 2806/2808 5SM BR BKN010
     FM280800 29005KT 5SM BR BKN020
     FM281500 31013G15KT P6SM BKN035
     FM281800 31013G18KT P6SM VCSH BKN035
     FM290400 30005KT P6SM SCT035=

USA.gov is the U.S. government's official web portal to all federal, state and local government web resources and services.